Time;durP1;ratioP1;P1;durP2;ratioP2;P2;SDS_P1;SDS_P2;PMS_P1;PMS_P2;Temp;Humidity;BMP_temperature;BMP_pressure;BME280_temperature;BME280_humidity;BME280_pressure;Samples;Min_cycle;Max_cycle;Signal;HPM_P1;HPM_P2
2023/03/12 00:02:26;;;;;;;10.38;5.50;;;;;;;-0.43;100.00;100599.06;7394374;19;20194;-37
2023/03/12 00:04:55;;;;;;;10.55;5.60;;;;;;;-0.43;100.00;100601.59;7393809;19;20138;-39
2023/03/12 00:07:25;;;;;;;10.77;6.05;;;;;;;-0.45;100.00;100605.63;7398038;19;20147;-37
2023/03/12 00:09:54;;;;;;;10.63;5.05;;;;;;;-0.45;100.00;100610.69;7393732;19;20135;-37
2023/03/12 00:12:24;;;;;;;8.85;5.68;;;;;;;-0.50;100.00;100609.44;7395147;19;20177;-37
2023/03/12 00:14:53;;;;;;;18.35;7.10;;;;;;;-0.44;100.00;100615.03;7393093;19;20150;-37
2023/03/12 00:17:25;;;;;;;13.40;5.70;;;;;;;-0.49;100.00;100616.28;7397974;19;20131;-36
2023/03/12 00:19:55;;;;;;;16.98;5.40;;;;;;;-0.56;100.00;100619.94;7393813;19;20147;-37
2023/03/12 00:22:25;;;;;;;11.70;6.13;;;;;;;-0.53;100.00;100620.97;7393963;19;20170;-36
2023/03/12 00:24:56;;;;;;;9.00;5.63;;;;;;;-0.55;100.00;100615.78;7393994;19;20156;-37
2023/03/12 00:27:26;;;;;;;11.07;5.80;;;;;;;-0.50;100.00;100616.16;7396072;19;20134;-38
2023/03/12 00:29:58;;;;;;;11.05;5.78;;;;;;;-0.53;100.00;100619.31;7393388;19;25206;-37
2023/03/12 00:32:31;;;;;;;13.77;6.68;;;;;;;-0.62;100.00;100619.44;7393760;19;20174;-38
2023/03/12 00:35:00;;;;;;;14.23;6.68;;;;;;;-0.66;100.00;100622.47;7393177;19;20198;-39
2023/03/12 00:37:31;;;;;;;13.82;6.22;;;;;;;-0.64;100.00;100623.50;7395082;19;20139;-37
2023/03/12 00:40:04;;;;;;;15.25;6.78;;;;;;;-0.61;100.00;100625.41;7389489;19;20201;-37
2023/03/12 00:42:34;;;;;;;18.80;6.65;;;;;;;-0.65;100.00;100624.25;7395477;19;20131;-36
2023/03/12 00:45:03;;;;;;;16.65;6.65;;;;;;;-0.69;100.00;100632.34;7393045;19;20643;-37
2023/03/12 00:47:35;;;;;;;19.55;6.55;;;;;;;-0.81;100.00;100632.19;7395652;19;20151;-37
2023/03/12 00:50:05;;;;;;;10.30;6.30;;;;;;;-0.82;100.00;100638.03;7392822;19;20579;-36
2023/03/12 00:52:35;;;;;;;10.98;5.95;;;;;;;-0.76;100.00;100646.16;7394097;19;20540;-37
2023/03/12 00:55:05;;;;;;;11.45;6.43;;;;;;;-0.83;100.00;100638.75;7391700;19;20190;-36
2023/03/12 00:57:34;;;;;;;12.52;6.22;;;;;;;-0.80;100.00;100644.09;7394743;19;20143;-36
2023/03/12 01:00:08;;;;;;;11.68;7.07;;;;;;;-0.78;100.00;100642.56;7390732;19;20213;-36
2023/03/12 01:02:41;;;;;;;15.23;7.03;;;;;;;-0.75;100.00;100644.50;7395029;19;20161;-37
2023/03/12 01:05:13;;;;;;;17.00;7.63;;;;;;;-0.76;100.00;100650.31;7391512;19;20218;-37
2023/03/12 01:07:43;;;;;;;12.13;7.20;;;;;;;-0.79;100.00;100645.88;7394644;19;20146;-37
2023/03/12 01:10:15;;;;;;;15.48;8.27;;;;;;;-0.84;100.00;100653.09;7390202;19;20198;-36
2023/03/12 01:12:45;;;;;;;16.70;7.15;;;;;;;-0.84;100.00;100647.13;7394739;19;20173;-37
2023/03/12 01:15:16;;;;;;;17.30;7.57;;;;;;;-0.86;100.00;100651.19;7391701;19;20266;-36
2023/03/12 01:17:48;;;;;;;14.02;8.32;;;;;;;-0.86;100.00;100654.59;7395680;19;20153;-37
2023/03/12 01:20:18;;;;;;;16.55;8.90;;;;;;;-0.86;100.00;100663.84;7391513;19;20194;-36
2023/03/12 01:22:48;;;;;;;20.33;7.68;;;;;;;-0.88;100.00;100660.31;7395559;19;20139;-36
2023/03/12 01:25:17;;;;;;;14.73;7.95;;;;;;;-0.79;100.00;100660.19;7389806;19;20659;-37
2023/03/12 01:27:47;;;;;;;17.85;8.70;;;;;;;-0.80;100.00;100655.88;7395294;19;20147;-37
2023/03/12 01:30:16;;;;;;;27.00;9.77;;;;;;;-0.74;100.00;100653.88;7391392;19;20847;-37
2023/03/12 01:32:48;;;;;;;53.05;22.92;;;;;;;-0.49;100.00;100653.41;7394507;19;20160;-38
2023/03/12 01:35:18;;;;;;;23.02;10.80;;;;;;;-0.35;100.00;100652.06;7388721;19;20186;-37
2023/03/12 01:37:47;;;;;;;17.88;9.75;;;;;;;-0.24;100.00;100652.94;7392246;19;20589;-37
2023/03/12 01:40:18;;;;;;;17.52;9.50;;;;;;;-0.11;100.00;100647.25;7390266;19;20222;-37
2023/03/12 01:42:53;;;;;;;18.10;9.48;;;;;;;-0.10;100.00;100649.91;7394693;19;20135;-37
2023/03/12 01:46:08;;;;;;;21.20;10.25;;;;;;;-0.06;100.00;100656.13;7392766;19;20197;-37
2023/03/12 01:48:43;;;;;;;18.63;9.90;;;;;;;0.25;100.00;100648.47;7389463;19;20139;-37
2023/03/12 01:51:14;;;;;;;20.65;10.48;;;;;;;0.04;100.00;100665.41;7389308;19;20202;-37
2023/03/12 01:53:46;;;;;;;22.17;9.03;;;;;;;-0.18;100.00;100661.06;7393366;19;20139;-37
2023/03/12 01:56:17;;;;;;;21.90;8.85;;;;;;;-0.30;100.00;100668.53;7391111;19;20439;-37
2023/03/12 01:58:51;;;;;;;20.00;9.75;;;;;;;-0.34;100.00;100667.41;7393847;19;20139;-39
2023/03/12 02:01:22;;;;;;;19.38;9.57;;;;;;;-0.60;100.00;100678.75;7390318;19;20585;-36
2023/03/12 02:03:55;;;;;;;18.15;8.95;;;;;;;-0.60;100.00;100677.84;7393988;19;20912;-38
2023/03/12 02:06:28;;;;;;;23.52;10.32;;;;;;;-0.53;100.00;100684.34;7389508;19;20182;-36
2023/03/12 02:08:58;;;;;;;18.25;9.85;;;;;;;-0.62;100.00;100684.44;7393213;19;20505;-37
2023/03/12 02:11:28;;;;;;;22.35;8.50;;;;;;;-0.72;100.00;100688.72;7388304;19;20217;-36
2023/03/12 02:13:57;;;;;;;18.23;9.60;;;;;;;-0.66;100.00;100684.94;7392925;19;20134;-37
2023/03/12 02:16:27;;;;;;;16.48;9.65;;;;;;;-0.65;100.00;100682.53;7388910;19;20674;-37
2023/03/12 02:19:02;;;;;;;17.88;9.43;;;;;;;-0.66;100.00;100679.88;7393621;19;20936;-36
2023/03/12 02:21:36;;;;;;;18.23;9.40;;;;;;;-0.77;100.00;100692.50;7389510;19;20213;-37
2023/03/12 02:24:10;;;;;;;19.58;10.02;;;;;;;-0.76;100.00;100680.72;7393456;19;20146;-36
2023/03/12 02:26:42;;;;;;;15.50;8.98;;;;;;;-0.78;100.00;100680.59;7390488;19;20193;-37
2023/03/12 02:29:12;;;;;;;23.40;9.27;;;;;;;-0.81;100.00;100682.88;7392602;19;20218;-35
2023/03/12 02:31:44;;;;;;;20.95;9.85;;;;;;;-0.83;100.00;100675.13;7389198;19;20587;-38
2023/03/12 02:34:14;;;;;;;20.33;9.82;;;;;;;-0.89;100.00;100673.69;7393314;19;20151;-37
2023/03/12 02:36:46;;;;;;;15.63;8.65;;;;;;;-0.93;100.00;100669.16;7392273;19;20207;-38
2023/03/12 02:39:18;;;;;;;22.15;9.60;;;;;;;-1.01;100.00;100679.50;7399960;19;20248;-39
2023/03/12 02:41:52;;;;;;;18.17;8.88;;;;;;;-1.03;100.00;100680.13;7395697;19;20201;-43
2023/03/12 02:44:23;;;;;;;20.55;10.20;;;;;;;-1.09;100.00;100688.97;7400597;19;20146;-36
2023/03/12 02:46:54;;;;;;;16.77;9.35;;;;;;;-1.13;100.00;100683.50;7397552;19;20190;-37
2023/03/12 02:49:25;;;;;;;22.83;9.63;;;;;;;-1.18;100.00;100685.59;7400014;19;20142;-37
2023/03/12 02:51:55;;;;;;;20.73;8.45;;;;;;;-1.21;100.00;100690.41;7396324;19;20205;-37
2023/03/12 02:54:25;;;;;;;27.88;11.00;;;;;;;-1.19;100.00;100685.50;7399819;19;20134;-38
2023/03/12 02:56:58;;;;;;;29.85;12.75;;;;;;;-1.19;100.00;100686.38;7398403;19;20189;-36
2023/03/12 02:59:28;;;;;;;20.58;9.85;;;;;;;-1.21;100.00;100695.47;7398876;19;20145;-36
2023/03/12 03:01:59;;;;;;;21.90;10.80;;;;;;;-1.24;100.00;100683.44;7395772;19;20198;-36
2023/03/12 03:04:29;;;;;;;22.27;11.60;;;;;;;-1.24;100.00;100685.97;7401106;19;20160;-37
2023/03/12 03:06:58;;;;;;;26.48;10.32;;;;;;;-1.24;100.00;100685.97;7396637;19;20269;-36
2023/03/12 03:09:29;;;;;;;17.52;9.55;;;;;;;-1.24;100.00;100690.13;7398842;19;20131;-37
2023/03/12 03:12:01;;;;;;;14.15;7.80;;;;;;;-1.37;100.00;100688.19;7394586;19;20583;-36
2023/03/12 03:14:30;;;;;;;21.30;7.95;;;;;;;-1.39;100.00;100689.69;7398131;19;20278;-39
2023/03/12 03:17:00;;;;;;;22.65;9.88;;;;;;;-1.34;100.00;100678.31;7396686;19;20198;-37
2023/03/12 03:19:29;;;;;;;33.88;12.07;;;;;;;-1.31;100.00;100683.66;7397674;19;20147;-36
2023/03/12 03:21:59;;;;;;;25.80;12.25;;;;;;;-1.33;100.00;100677.59;7394680;19;20234;-36
2023/03/12 03:24:28;;;;;;;22.13;11.02;;;;;;;-1.39;100.00;100687.16;7398109;19;20160;-37
2023/03/12 03:26:57;;;;;;;29.23;10.65;;;;;;;-1.40;100.00;100675.22;7396607;19;20198;-37
2023/03/12 03:29:29;;;;;;;22.02;11.07;;;;;;;-1.26;100.00;100673.94;7397481;19;20135;-37
2023/03/12 03:31:59;;;;;;;26.83;13.45;;;;;;;-1.28;100.00;100673.78;7394817;19;20210;-37
2023/03/12 03:34:29;;;;;;;28.67;12.95;;;;;;;-1.06;100.00;100669.72;7397285;19;20145;-37
2023/03/12 03:36:58;;;;;;;30.23;13.77;;;;;;;-1.16;100.00;100674.00;7395505;19;20211;-38
2023/03/12 03:39:30;;;;;;;29.50;14.13;;;;;;;-1.25;100.00;100663.94;7397199;19;20131;-37
2023/03/12 03:41:59;;;;;;;33.17;14.50;;;;;;;-1.03;100.00;100653.13;7394083;19;20201;-37
2023/03/12 03:44:31;;;;;;;37.10;13.10;;;;;;;-0.90;100.00;100666.84;7396152;19;20147;-38
2023/03/12 03:47:01;;;;;;;37.90;15.75;;;;;;;-1.05;100.00;100662.25;7398815;19;20192;-40
2023/03/12 03:49:30;;;;;;;33.22;17.63;;;;;;;-1.12;100.00;100660.81;7395069;19;20135;-37
2023/03/12 03:52:00;;;;;;;35.10;14.85;;;;;;;-1.17;100.00;100661.19;7393729;19;20202;-37
2023/03/12 03:54:29;;;;;;;35.65;14.25;;;;;;;-1.23;100.00;100667.47;7396802;19;20134;-37
2023/03/12 03:56:59;;;;;;;30.60;14.82;;;;;;;-1.19;100.00;100672.84;7395965;19;20186;-38
2023/03/12 03:59:31;;;;;;;32.83;14.02;;;;;;;-1.22;100.00;100681.91;7396864;19;20495;-39
2023/03/12 04:02:01;;;;;;;30.73;14.30;;;;;;;-1.27;100.00;100685.69;7393447;19;20198;-39
2023/03/12 04:04:33;;;;;;;25.10;13.75;;;;;;;-1.27;100.00;100685.69;7397265;19;20145;-39
2023/03/12 04:07:03;;;;;;;27.33;14.00;;;;;;;-1.33;100.00;100690.25;7396827;19;20190;-37
2023/03/12 04:09:32;;;;;;;29.80;12.95;;;;;;;-1.29;100.00;100692.25;7396467;19;20149;-37
2023/03/12 04:12:01;;;;;;;30.73;12.65;;;;;;;-1.19;100.00;100688.03;7395078;19;20195;-37
2023/03/12 04:14:33;;;;;;;29.15;14.25;;;;;;;-1.00;100.00;100690.50;7396952;19;20163;-37
2023/03/12 04:17:03;;;;;;;30.95;13.07;;;;;;;-0.63;100.00;100682.66;7397025;19;20194;-37
2023/03/12 04:19:32;;;;;;;28.75;14.35;;;;;;;-0.48;100.00;100694.13;7395363;19;20166;-35
2023/03/12 04:22:02;;;;;;;31.05;14.27;;;;;;;-0.45;100.00;100689.28;7395334;19;20202;-36
2023/03/12 04:24:32;;;;;;;28.67;13.15;;;;;;;-0.12;100.00;100683.53;7396301;19;20492;-36
2023/03/12 04:27:01;;;;;;;29.92;14.18;;;;;;;-0.02;100.00;100681.88;7396996;19;20737;-37
2023/03/12 04:29:30;;;;;;;30.38;13.55;;;;;;;0.38;100.00;100679.22;7395831;19;20135;-37
2023/03/12 04:32:03;;;;;;;32.13;15.45;;;;;;;0.40;100.00;100680.22;7393414;19;20206;-38
2023/03/12 04:34:32;;;;;;;24.92;13.73;;;;;;;-0.05;100.00;100685.81;7396104;19;20135;-38
2023/03/12 04:37:02;;;;;;;25.45;13.60;;;;;;;0.04;100.00;100686.56;7395555;19;20198;-37
2023/03/12 04:39:31;;;;;;;27.67;12.98;;;;;;;0.28;100.00;100691.91;7394742;19;20147;-36
2023/03/12 04:42:01;;;;;;;22.70;12.85;;;;;;;0.15;100.00;100692.53;7394738;19;20204;-38
2023/03/12 04:44:31;;;;;;;30.60;14.57;;;;;;;-0.39;100.00;100709.22;7396385;19;20726;-35
2023/03/12 04:47:03;;;;;;;31.08;12.77;;;;;;;-0.88;100.00;100710.97;7393509;19;20194;-38
2023/03/12 04:49:33;;;;;;;31.05;12.27;;;;;;;-1.10;100.00;100716.69;7395176;19;20141;-39
2023/03/12 04:52:02;;;;;;;20.15;11.48;;;;;;;-1.24;100.00;100721.41;7394552;19;20557;-37
2023/03/12 04:54:32;;;;;;;25.90;11.73;;;;;;;-1.29;100.00;100730.25;7395613;19;20689;-36
2023/03/12 04:57:01;;;;;;;23.40;12.40;;;;;;;-1.01;100.00;100731.78;7393188;19;20178;-38
2023/03/12 04:59:31;;;;;;;25.90;12.85;;;;;;;-0.35;100.00;100730.66;7394199;19;20654;-39
2023/03/12 05:02:03;;;;;;;22.20;12.00;;;;;;;-0.36;100.00;100731.41;7392547;19;20202;-37
2023/03/12 05:04:32;;;;;;;21.38;12.00;;;;;;;-0.52;100.00;100732.63;7395015;19;20138;-38
2023/03/12 05:07:02;;;;;;;27.73;12.73;;;;;;;-0.48;100.00;100731.25;7395482;19;20182;-35
2023/03/12 05:09:31;;;;;;;22.40;11.90;;;;;;;-0.47;100.00;100744.06;7395226;19;20142;-36
2023/03/12 05:12:01;;;;;;;23.98;11.52;;;;;;;-0.83;100.00;100752.78;7391740;19;20209;-37
2023/03/12 05:14:30;;;;;;;22.00;11.48;;;;;;;-0.94;100.00;100756.03;7395219;19;20143;-37
2023/03/12 05:17:04;;;;;;;22.08;11.57;;;;;;;-1.15;100.00;100760.97;7392019;19;20194;-37
2023/03/12 05:19:33;;;;;;;28.45;11.10;;;;;;;-1.25;100.00;100770.28;7394033;19;20135;-37
2023/03/12 05:22:03;;;;;;;19.40;10.77;;;;;;;-1.37;100.00;100776.78;7394128;19;20650;-37
2023/03/12 05:24:32;;;;;;;22.38;11.18;;;;;;;-1.40;100.00;100779.03;7394581;19;20162;-41
2023/03/12 05:27:02;;;;;;;18.92;10.23;;;;;;;-1.31;100.00;100774.81;7393978;19;20283;-37
2023/03/12 05:29:34;;;;;;;21.08;10.25;;;;;;;-1.41;100.00;100777.25;7393352;19;20138;-37
2023/03/12 05:32:07;;;;;;;17.13;9.75;;;;;;;-1.03;100.00;100778.91;7392763;19;20215;-37
2023/03/12 05:34:37;;;;;;;20.38;10.38;;;;;;;-1.19;100.00;100785.13;7392288;19;20138;-37
2023/03/12 05:37:06;;;;;;;18.33;10.70;;;;;;;-1.38;100.00;100782.59;7392992;19;20157;-37
2023/03/12 05:39:36;;;;;;;23.10;10.43;;;;;;;-1.37;100.00;100780.19;7392467;19;20143;-37
2023/03/12 05:42:06;;;;;;;21.25;11.18;;;;;;;-1.43;100.00;100777.09;7389293;19;20675;-37
2023/03/12 05:44:36;;;;;;;18.92;9.73;;;;;;;-0.84;100.00;100772.16;7394039;19;20163;-39
2023/03/12 05:47:09;;;;;;;19.95;11.57;;;;;;;-0.86;100.00;100765.19;7393540;19;20182;-37
2023/03/12 05:49:38;;;;;;;23.85;11.00;;;;;;;-0.46;100.00;100753.44;7391471;19;20147;-39
2023/03/12 05:52:08;;;;;;;28.02;14.30;;;;;;;-0.44;100.00;100751.94;7392650;19;20190;-37
2023/03/12 05:54:38;;;;;;;20.67;11.07;;;;;;;-0.51;100.00;100749.59;7391285;19;20148;-37
2023/03/12 05:57:08;;;;;;;22.85;11.95;;;;;;;-0.95;100.00;100752.59;7392678;19;20135;-38
2023/03/12 05:59:37;;;;;;;26.73;11.50;;;;;;;-1.11;100.00;100748.72;7390645;19;20159;-38
2023/03/12 06:02:09;;;;;;;40.28;20.25;;;;;;;-0.77;100.00;100743.16;7392614;19;20193;-37
2023/03/12 06:04:39;;;;;;;24.02;11.50;;;;;;;-0.88;100.00;100754.03;7389945;19;20468;-37
2023/03/12 06:07:08;;;;;;;20.60;10.15;;;;;;;-0.86;100.00;100744.91;7393689;19;20159;-39
2023/03/12 06:09:38;;;;;;;17.90;9.77;;;;;;;-0.98;100.00;100752.31;7389577;19;20138;-37
2023/03/12 06:12:07;;;;;;;18.95;10.00;;;;;;;-0.94;100.00;100756.91;7395340;19;20173;-38
2023/03/12 06:14:37;;;;;;;23.40;11.15;;;;;;;-0.37;100.00;100739.78;7398861;19;20138;-37
2023/03/12 06:17:09;;;;;;;20.25;10.93;;;;;;;-0.20;100.00;100751.38;7399450;19;20167;-37
2023/03/12 06:19:39;;;;;;;17.58;10.63;;;;;;;-0.46;100.00;100750.91;7397427;19;20438;-37
2023/03/12 06:22:08;;;;;;;16.88;9.60;;;;;;;-0.57;100.00;100749.06;7398682;19;20643;-37
2023/03/12 06:24:39;;;;;;;20.67;10.05;;;;;;;-0.58;100.00;100742.22;7395246;19;20139;-37
2023/03/12 06:27:09;;;;;;;19.25;10.85;;;;;;;-0.88;100.00;100761.63;7400977;19;20138;-39
2023/03/12 06:29:38;;;;;;;18.23;10.40;;;;;;;-0.96;100.00;100759.28;7397936;19;20135;-39
2023/03/12 06:32:11;;;;;;;19.42;9.75;;;;;;;-0.93;100.00;100757.81;7398581;19;20189;-37
2023/03/12 06:34:41;;;;;;;20.30;9.40;;;;;;;-0.91;100.00;100754.66;7398071;19;20163;-37
2023/03/12 06:37:10;;;;;;;17.85;10.18;;;;;;;-0.86;100.00;100753.41;7398484;19;20155;-40
2023/03/12 06:39:40;;;;;;;16.65;9.32;;;;;;;-0.83;100.00;100750.25;7396730;19;20154;-37
2023/03/12 06:42:11;;;;;;;22.35;9.27;;;;;;;-0.83;100.00;100751.16;7398762;19;20310;-38
2023/03/12 06:44:41;;;;;;;17.42;10.50;;;;;;;-0.80;100.00;100745.47;7397705;19;20139;-36
2023/03/12 06:47:13;;;;;;;15.15;10.50;;;;;;;-0.77;100.00;100748.25;7399899;19;20141;-35
2023/03/12 06:49:46;;;;;;;24.80;10.70;;;;;;;-0.75;100.00;100749.28;7397005;19;20139;-34
2023/03/12 06:52:15;;;;;;;22.23;11.10;;;;;;;-0.76;100.00;100742.44;7397895;19;20512;-39
2023/03/12 06:54:45;;;;;;;21.52;11.00;;;;;;;-0.82;100.00;100742.78;7397713;19;20154;-37
2023/03/12 06:57:15;;;;;;;30.90;11.35;;;;;;;-0.76;100.00;100742.44;7398126;19;20495;-37
2023/03/12 06:59:45;;;;;;;23.88;13.68;;;;;;;-0.71;100.00;100737.78;7398301;19;20134;-38
2023/03/12 07:02:20;;;;;;;28.15;12.15;;;;;;;-0.66;100.00;100730.56;7397878;19;20178;-35
2023/03/12 07:04:50;;;;;;;22.55;12.43;;;;;;;-0.73;100.00;100731.66;7396419;19;20163;-35
2023/03/12 07:07:19;;;;;;;26.70;12.32;;;;;;;-0.52;100.00;100726.69;7399792;19;20160;-37
2023/03/12 07:09:49;;;;;;;24.58;13.93;;;;;;;-0.32;100.00;100735.97;7396619;19;20135;-37
2023/03/12 07:12:19;;;;;;;25.38;12.77;;;;;;;-0.26;100.00;100740.69;7398133;19;20174;-37
2023/03/12 07:14:48;;;;;;;25.52;12.85;;;;;;;-0.48;100.00;100742.28;7397089;19;20489;-35
2023/03/12 07:17:22;;;;;;;21.80;12.45;;;;;;;-0.51;100.00;100739.47;7398735;19;20519;-36
2023/03/12 07:19:51;;;;;;;24.83;12.85;;;;;;;-0.38;100.00;100735.44;7394152;19;20143;-38
2023/03/12 07:22:21;;;;;;;25.92;12.23;;;;;;;-0.30;100.00;100739.56;7397994;19;20170;-39
2023/03/12 07:24:50;;;;;;;22.60;12.27;;;;;;;-0.41;100.00;100741.19;7395690;19;20614;-37
2023/03/12 07:27:20;;;;;;;21.02;12.55;;;;;;;-0.27;100.00;100739.78;7399135;19;20134;-37
2023/03/12 07:29:51;;;;;;;21.88;13.10;;;;;;;-0.18;100.00;100735.53;7395915;19;20131;-38
2023/03/12 07:32:23;;;;;;;25.65;13.25;;;;;;;-0.27;100.00;100742.31;7397336;19;20643;-36
2023/03/12 07:34:53;;;;;;;24.05;12.23;;;;;;;-0.22;100.00;100741.06;7395600;19;20142;-36
2023/03/12 07:37:23;;;;;;;25.73;13.00;;;;;;;-0.30;100.00;100737.00;7397102;19;20163;-37
2023/03/12 07:39:53;;;;;;;24.77;12.23;;;;;;;-0.32;100.00;100741.94;7395100;19;20175;-37
2023/03/12 07:42:23;;;;;;;20.75;12.23;;;;;;;-0.10;100.00;100743.75;7397564;19;20538;-37
2023/03/12 07:44:53;;;;;;;22.20;11.23;;;;;;;-0.24;100.00;100750.22;7394756;19;20628;-37
2023/03/12 07:47:25;;;;;;;22.10;11.73;;;;;;;-0.07;100.00;100745.66;7398489;19;20135;-37
2023/03/12 07:49:55;;;;;;;22.55;12.00;;;;;;;0.04;100.00;100742.38;7394780;19;20222;-38
2023/03/12 07:52:24;;;;;;;31.93;13.03;;;;;;;0.09;100.00;100740.22;7396868;19;20166;-36
2023/03/12 07:54:55;;;;;;;26.45;12.27;;;;;;;-0.13;100.00;100740.97;7394383;19;20931;-37
2023/03/12 07:57:24;;;;;;;27.50;11.95;;;;;;;-0.07;100.00;100751.63;7397756;19;20497;-35
2023/03/12 07:59:54;;;;;;;19.30;11.02;;;;;;;-0.15;100.00;100766.19;7394532;19;20139;-35
2023/03/12 08:02:26;;;;;;;18.65;11.25;;;;;;;-0.02;100.00;100765.59;7395791;19;20170;-35
2023/03/12 08:04:56;;;;;;;31.23;12.40;;;;;;;0.06;100.00;100763.69;7394008;19;20214;-36
2023/03/12 08:07:31;;;;;;;20.67;11.27;;;;;;;-0.12;100.00;100764.69;7396749;19;20367;-36
2023/03/12 08:10:00;;;;;;;19.67;10.77;;;;;;;-0.11;100.00;100771.56;7394318;19;20595;-36
2023/03/12 08:12:30;;;;;;;22.63;11.10;;;;;;;-0.12;100.00;100772.31;7394711;19;20598;-36
2023/03/12 08:14:59;;;;;;;19.00;9.95;;;;;;;-0.06;100.00;100775.38;7394158;19;20411;-36
2023/03/12 08:17:32;;;;;;;18.77;10.63;;;;;;;0.11;100.00;100772.59;7395229;19;20166;-36
2023/03/12 08:20:01;;;;;;;16.33;9.70;;;;;;;0.37;100.00;100768.78;7393969;19;20222;-36
2023/03/12 08:22:31;;;;;;;12.57;9.40;;;;;;;0.51;100.00;100771.63;7394269;19;20431;-36
2023/03/12 08:25:00;;;;;;;18.33;10.07;;;;;;;0.60;100.00;100774.00;7394022;19;20394;-36
2023/03/12 08:27:30;;;;;;;13.17;8.20;;;;;;;0.82;100.00;100773.22;7396588;19;20400;-37
2023/03/12 08:30:00;;;;;;;13.93;7.85;;;;;;;0.71;100.00;100777.44;7392709;19;20383;-36
2023/03/12 08:32:32;;;;;;;21.30;8.13;;;;;;;0.87;100.00;100777.91;7394376;19;20171;-36
2023/03/12 08:35:04;;;;;;;10.17;6.27;;;;;;;0.78;100.00;100780.56;7390106;19;20272;-36
2023/03/12 08:37:33;;;;;;;9.60;7.10;;;;;;;0.82;100.00;100793.53;7393812;19;20391;-37
2023/03/12 08:40:04;;;;;;;18.03;7.83;;;;;;;0.90;100.00;100795.94;7393028;19;20399;-37
2023/03/12 08:42:33;;;;;;;10.03;6.20;;;;;;;0.61;100.00;100802.06;7393870;19;20799;-35
2023/03/12 08:45:03;;;;;;;13.20;7.07;;;;;;;0.62;100.00;100810.59;7393593;19;20951;-36
2023/03/12 08:47:35;;;;;;;8.73;5.70;;;;;;;0.69;100.00;100817.03;7394925;19;20437;-36
2023/03/12 08:50:05;;;;;;;10.20;5.43;;;;;;;0.78;100.00;100815.28;7370600;19;20426;-35
2023/03/12 08:52:34;;;;;;;13.80;5.60;;;;;;;0.86;100.00;100811.69;7392447;19;20431;-35
2023/03/12 08:55:04;;;;;;;22.67;6.50;;;;;;;1.19;100.00;100810.09;7393312;19;20382;-35
2023/03/12 08:57:34;;;;;;;11.37;5.83;;;;;;;1.29;100.00;100813.41;7394002;19;20386;-35
2023/03/12 09:00:04;;;;;;;8.37;5.20;;;;;;;1.15;100.00;100825.91;7393161;19;20382;-35
2023/03/12 09:02:36;;;;;;;11.63;5.10;;;;;;;1.27;100.00;100820.03;7395023;19;20443;-35
2023/03/12 09:05:07;;;;;;;11.10;5.40;;;;;;;1.21;100.00;100823.84;7389636;19;20415;-35
2023/03/12 09:07:36;;;;;;;8.97;4.90;;;;;;;1.47;100.00;100830.13;7391608;19;20407;-35
2023/03/12 09:10:07;;;;;;;8.50;5.23;;;;;;;1.45;100.00;100825.69;7389718;19;20463;-35
2023/03/12 09:12:37;;;;;;;9.53;4.93;;;;;;;1.53;100.00;100826.31;7394611;19;20426;-35
2023/03/12 09:15:08;;;;;;;8.50;5.43;;;;;;;1.46;100.00;100820.72;7392699;19;20378;-35
2023/03/12 09:17:40;;;;;;;12.43;6.17;;;;;;;1.49;100.00;100822.63;7394422;19;20400;-35
2023/03/12 09:20:13;;;;;;;14.43;4.93;;;;;;;1.51;100.00;100821.09;7388776;19;20971;-36
2023/03/12 09:22:43;;;;;;;10.23;4.87;;;;;;;1.72;100.00;100821.00;7392783;19;20419;-35
2023/03/12 09:25:13;;;;;;;7.70;4.40;;;;;;;1.56;100.00;100823.97;7393570;19;20442;-38
2023/03/12 09:27:45;;;;;;;11.83;4.40;;;;;;;1.56;100.00;100824.88;7394776;19;20390;-36
2023/03/12 09:30:17;;;;;;;10.17;3.83;;;;;;;1.68;100.00;100824.94;7391676;19;20422;-36
2023/03/12 09:32:49;;;;;;;13.70;4.73;;;;;;;1.60;100.00;100831.09;7391849;19;21261;-35
2023/03/12 09:35:19;;;;;;;9.90;4.10;;;;;;;1.47;100.00;100827.59;7393387;19;20432;-35
2023/03/12 09:37:50;;;;;;;11.17;5.23;;;;;;;1.57;100.00;100823.22;7393110;19;20426;-35
2023/03/12 09:40:22;;;;;;;14.07;4.73;;;;;;;1.58;100.00;100832.59;7391581;19;20447;-35
2023/03/12 09:42:54;;;;;;;9.80;3.93;;;;;;;1.77;100.00;100827.34;7393788;19;20406;-36
2023/03/12 09:45:25;;;;;;;10.20;4.07;;;;;;;1.86;100.00;100814.44;7388988;19;20444;-36
2023/03/12 09:48:00;;;;;;;10.70;4.23;;;;;;;2.00;100.00;100815.53;7392163;19;20405;-35
2023/03/12 09:50:32;;;;;;;12.30;4.57;;;;;;;2.04;100.00;100798.81;7390100;19;20418;-35
2023/03/12 09:53:03;;;;;;;7.50;4.43;;;;;;;2.10;100.00;100794.19;7393841;19;20396;-37
2023/03/12 09:55:37;;;;;;;14.80;6.00;;;;;;;2.14;100.00;100806.38;7390134;19;20423;-36
2023/03/12 09:58:12;;;;;;;9.07;3.93;;;;;;;1.92;100.00;100814.91;7393815;19;20415;-36
2023/03/12 10:00:42;;;;;;;8.40;3.67;;;;;;;1.93;100.00;100801.41;7389540;19;20427;-35
2023/03/12 10:03:31;;;;;;;10.37;4.70;;;;;;;2.11;100.00;100795.97;7394014;19;20407;-36
2023/03/12 10:06:08;;;;;;;9.43;4.80;;;;;;;2.36;100.00;100785.09;7390688;19;20818;-36
2023/03/12 10:08:49;;;;;;;9.87;5.17;;;;;;;2.39;100.00;100773.50;7392936;19;20418;-35
2023/03/12 10:11:26;;;;;;;7.80;4.60;;;;;;;2.33;100.00;100770.47;7390979;19;20454;-35
2023/03/12 10:14:05;;;;;;;7.30;4.00;;;;;;;2.54;100.00;100755.91;7393859;19;20410;-36
2023/03/12 10:16:46;;;;;;;6.23;3.90;;;;;;;2.88;100.00;100734.56;7389962;19;20427;-35
2023/03/12 10:19:36;;;;;;;8.40;3.80;;;;;;;3.11;100.00;100730.22;7391922;19;20415;-36
2023/03/12 10:22:09;;;;;;;7.43;4.03;;;;;;;3.13;100.00;100740.53;7392057;19;20467;-35
2023/03/12 10:24:49;;;;;;;7.27;3.60;;;;;;;2.90;100.00;100749.97;7392069;19;20404;-36
2023/03/12 10:27:20;;;;;;;9.97;4.40;;;;;;;2.91;100.00;100750.06;7393058;19;20422;-35
2023/03/12 10:29:51;;;;;;;10.83;4.00;;;;;;;2.97;100.00;100755.63;7387140;19;20403;-35
2023/03/12 10:32:23;;;;;;;6.20;3.40;;;;;;;3.11;100.00;100748.06;7391746;19;20435;-38
2023/03/12 10:34:58;;;;;;;8.13;3.20;;;;;;;3.18;100.00;100727.34;7390164;19;20375;-36
2023/03/12 10:37:30;;;;;;;8.80;3.40;;;;;;;2.95;100.00;100748.63;7391315;19;20406;-35
2023/03/12 10:40:01;;;;;;;6.70;3.53;;;;;;;2.84;100.00;100746.19;7388065;19;20415;-36
2023/03/12 10:42:31;;;;;;;8.30;4.00;;;;;;;3.03;100.00;100739.00;7390057;19;20435;-35
2023/03/12 10:45:08;;;;;;;8.00;3.00;;;;;;;2.78;100.00;100738.09;7389410;19;20415;-36
2023/03/12 10:47:39;;;;;;;9.73;3.67;;;;;;;2.81;100.00;100743.44;7392302;19;20399;-36
2023/03/12 10:50:25;;;;;;;12.93;3.30;;;;;;;2.78;100.00;100748.28;7388854;19;20427;-36
2023/03/12 10:52:56;;;;;;;7.20;3.60;;;;;;;2.74;100.00;100738.66;7392712;19;20403;-36
2023/03/12 10:55:29;;;;;;;14.03;4.30;;;;;;;2.72;100.00;100732.53;7390406;19;20439;-35
2023/03/12 10:57:58;;;;;;;7.70;3.80;;;;;;;2.87;100.00;100747.19;7395725;19;20426;-36
2023/03/12 11:00:30;;;;;;;7.23;3.20;;;;;;;2.82;100.00;100755.38;7394999;19;20467;-36
2023/03/12 11:03:02;;;;;;;9.93;4.43;;;;;;;2.73;100.00;100754.72;7400536;19;20390;-36
2023/03/12 11:05:36;;;;;;;10.73;3.47;;;;;;;2.78;100.00;100745.72;7395506;19;20494;-36
2023/03/12 11:08:22;;;;;;;13.87;4.93;;;;;;;2.65;100.00;100743.06;7399392;19;20378;-36
2023/03/12 11:10:51;;;;;;;10.67;4.60;;;;;;;2.71;100.00;100753.72;7394970;19;20459;-36
2023/03/12 11:13:27;;;;;;;11.60;3.17;;;;;;;2.62;100.00;100758.16;7400551;19;20422;-37
2023/03/12 11:15:58;;;;;;;9.40;4.30;;;;;;;2.67;100.00;100764.47;7396494;19;20459;-36
2023/03/12 11:18:35;;;;;;;11.13;3.60;;;;;;;2.80;100.00;100762.03;7397827;19;20428;-36
2023/03/12 11:21:21;;;;;;;7.43;3.40;;;;;;;2.84;100.00;100748.72;7396199;19;20467;-35
2023/03/12 11:24:07;;;;;;;13.07;4.67;;;;;;;2.87;100.00;100752.31;7394513;19;20405;-35
2023/03/12 11:26:41;;;;;;;15.37;5.10;;;;;;;2.74;100.00;100743.75;7395315;19;20452;-35
2023/03/12 11:29:18;;;;;;;9.13;4.30;;;;;;;2.81;100.00;100751.06;7399622;19;20419;-38